sensor_id;sensor_type;location;lat;lon;timestamp;P1;durP1;ratioP1;P2;durP2;ratioP2
15116;SDS011;7659;51.038;13.786;2023-07-30T00:01:07;6.63;;;3.28;;
15116;SDS011;7659;51.038;13.786;2023-07-30T00:03:32;5.95;;;2.70;;
15116;SDS011;7659;51.038;13.786;2023-07-30T00:05:58;6.70;;;3.05;;
15116;SDS011;7659;51.038;13.786;2023-07-30T00:08:23;7.35;;;2.88;;
15116;SDS011;7659;51.038;13.786;2023-07-30T00:10:49;10.13;;;3.40;;
15116;SDS011;7659;51.038;13.786;2023-07-30T00:13:14;8.40;;;3.53;;
15116;SDS011;7659;51.038;13.786;2023-07-30T00:15:40;4.65;;;2.88;;
15116;SDS011;7659;51.038;13.786;2023-07-30T00:18:05;10.10;;;3.25;;
15116;SDS011;7659;51.038;13.786;2023-07-30T00:20:31;4.13;;;3.17;;
15116;SDS011;7659;51.038;13.786;2023-07-30T00:22:56;6.47;;;3.38;;
15116;SDS011;7659;51.038;13.786;2023-07-30T00:25:22;5.93;;;2.85;;
15116;SDS011;7659;51.038;13.786;2023-07-30T00:27:47;8.80;;;3.10;;
15116;SDS011;7659;51.038;13.786;2023-07-30T00:30:13;6.93;;;3.28;;
15116;SDS011;7659;51.038;13.786;2023-07-30T00:32:38;7.57;;;3.13;;
15116;SDS011;7659;51.038;13.786;2023-07-30T00:35:08;5.53;;;2.55;;
15116;SDS011;7659;51.038;13.786;2023-07-30T00:37:34;4.20;;;2.42;;
15116;SDS011;7659;51.038;13.786;2023-07-30T00:40:00;5.18;;;2.60;;
15116;SDS011;7659;51.038;13.786;2023-07-30T00:42:26;8.98;;;3.00;;
15116;SDS011;7659;51.038;13.786;2023-07-30T00:44:51;6.60;;;2.65;;
15116;SDS011;7659;51.038;13.786;2023-07-30T00:47:17;3.17;;;2.63;;
15116;SDS011;7659;51.038;13.786;2023-07-30T00:49:42;7.97;;;2.90;;
15116;SDS011;7659;51.038;13.786;2023-07-30T00:52:08;4.93;;;2.70;;
15116;SDS011;7659;51.038;13.786;2023-07-30T00:54:33;7.82;;;3.00;;
15116;SDS011;7659;51.038;13.786;2023-07-30T00:56:59;4.70;;;2.60;;
15116;SDS011;7659;51.038;13.786;2023-07-30T00:59:25;6.22;;;2.83;;
15116;SDS011;7659;51.038;13.786;2023-07-30T01:01:52;7.47;;;2.70;;
15116;SDS011;7659;51.038;13.786;2023-07-30T01:04:18;7.80;;;2.60;;
15116;SDS011;7659;51.038;13.786;2023-07-30T01:06:44;5.60;;;2.53;;
15116;SDS011;7659;51.038;13.786;2023-07-30T01:09:10;8.00;;;2.67;;
15116;SDS011;7659;51.038;13.786;2023-07-30T01:11:35;5.10;;;2.55;;
15116;SDS011;7659;51.038;13.786;2023-07-30T01:14:02;7.75;;;2.67;;
15116;SDS011;7659;51.038;13.786;2023-07-30T01:16:28;5.93;;;2.42;;
15116;SDS011;7659;51.038;13.786;2023-07-30T01:18:54;4.05;;;2.40;;
15116;SDS011;7659;51.038;13.786;2023-07-30T01:21:19;5.28;;;2.28;;
15116;SDS011;7659;51.038;13.786;2023-07-30T01:23:44;3.85;;;2.42;;
15116;SDS011;7659;51.038;13.786;2023-07-30T01:26:17;2.60;;;2.35;;
15116;SDS011;7659;51.038;13.786;2023-07-30T01:28:46;4.05;;;2.35;;
15116;SDS011;7659;51.038;13.786;2023-07-30T01:31:16;4.22;;;2.55;;
15116;SDS011;7659;51.038;13.786;2023-07-30T01:33:42;6.57;;;2.17;;
15116;SDS011;7659;51.038;13.786;2023-07-30T01:36:09;8.40;;;2.05;;
15116;SDS011;7659;51.038;13.786;2023-07-30T01:38:36;9.05;;;2.08;;
15116;SDS011;7659;51.038;13.786;2023-07-30T01:41:03;3.65;;;1.95;;
15116;SDS011;7659;51.038;13.786;2023-07-30T01:43:28;3.08;;;2.38;;
15116;SDS011;7659;51.038;13.786;2023-07-30T01:45:54;6.15;;;2.72;;
15116;SDS011;7659;51.038;13.786;2023-07-30T01:48:19;5.15;;;2.22;;
15116;SDS011;7659;51.038;13.786;2023-07-30T01:50:45;6.05;;;2.63;;
15116;SDS011;7659;51.038;13.786;2023-07-30T01:53:12;3.35;;;2.50;;
15116;SDS011;7659;51.038;13.786;2023-07-30T01:55:38;6.95;;;2.50;;
15116;SDS011;7659;51.038;13.786;2023-07-30T01:58:04;5.47;;;2.25;;
15116;SDS011;7659;51.038;13.786;2023-07-30T02:00:30;7.80;;;2.40;;
15116;SDS011;7659;51.038;13.786;2023-07-30T02:03:15;4.65;;;1.85;;
15116;SDS011;7659;51.038;13.786;2023-07-30T02:05:41;5.50;;;1.95;;
15116;SDS011;7659;51.038;13.786;2023-07-30T02:08:06;4.05;;;2.10;;
15116;SDS011;7659;51.038;13.786;2023-07-30T02:10:33;6.20;;;2.35;;
15116;SDS011;7659;51.038;13.786;2023-07-30T02:12:59;3.83;;;2.28;;
15116;SDS011;7659;51.038;13.786;2023-07-30T02:15:24;3.85;;;2.38;;
15116;SDS011;7659;51.038;13.786;2023-07-30T02:17:50;6.72;;;2.40;;
15116;SDS011;7659;51.038;13.786;2023-07-30T02:20:15;3.65;;;1.90;;
15116;SDS011;7659;51.038;13.786;2023-07-30T02:22:41;6.47;;;1.77;;
15116;SDS011;7659;51.038;13.786;2023-07-30T02:25:06;2.97;;;2.40;;
15116;SDS011;7659;51.038;13.786;2023-07-30T02:27:32;4.03;;;2.25;;
15116;SDS011;7659;51.038;13.786;2023-07-30T02:29:57;3.20;;;2.05;;
15116;SDS011;7659;51.038;13.786;2023-07-30T02:32:23;3.72;;;2.17;;
15116;SDS011;7659;51.038;13.786;2023-07-30T02:34:48;4.85;;;2.28;;
15116;SDS011;7659;51.038;13.786;2023-07-30T02:37:14;5.32;;;2.13;;
15116;SDS011;7659;51.038;13.786;2023-07-30T02:39:39;4.55;;;2.00;;
15116;SDS011;7659;51.038;13.786;2023-07-30T02:42:06;2.88;;;2.10;;
15116;SDS011;7659;51.038;13.786;2023-07-30T02:44:31;6.07;;;2.58;;
15116;SDS011;7659;51.038;13.786;2023-07-30T02:46:57;7.05;;;2.55;;
15116;SDS011;7659;51.038;13.786;2023-07-30T02:49:22;2.33;;;2.10;;
15116;SDS011;7659;51.038;13.786;2023-07-30T02:51:48;6.07;;;2.70;;
15116;SDS011;7659;51.038;13.786;2023-07-30T02:54:14;7.10;;;2.50;;
15116;SDS011;7659;51.038;13.786;2023-07-30T02:56:41;6.38;;;2.40;;
15116;SDS011;7659;51.038;13.786;2023-07-30T02:59:06;5.97;;;2.75;;
15116;SDS011;7659;51.038;13.786;2023-07-30T03:01:32;3.15;;;2.70;;
15116;SDS011;7659;51.038;13.786;2023-07-30T03:03:57;3.13;;;2.55;;
15116;SDS011;7659;51.038;13.786;2023-07-30T03:06:23;5.07;;;3.00;;
15116;SDS011;7659;51.038;13.786;2023-07-30T03:08:48;5.85;;;2.58;;
15116;SDS011;7659;51.038;13.786;2023-07-30T03:11:14;6.82;;;2.92;;
15116;SDS011;7659;51.038;13.786;2023-07-30T03:13:39;4.03;;;2.42;;
15116;SDS011;7659;51.038;13.786;2023-07-30T03:16:05;10.65;;;2.88;;
15116;SDS011;7659;51.038;13.786;2023-07-30T03:18:30;8.40;;;2.85;;
15116;SDS011;7659;51.038;13.786;2023-07-30T03:20:59;3.08;;;2.78;;
15116;SDS011;7659;51.038;13.786;2023-07-30T03:23:25;3.78;;;3.10;;
15116;SDS011;7659;51.038;13.786;2023-07-30T03:25:51;3.55;;;2.60;;
15116;SDS011;7659;51.038;13.786;2023-07-30T03:28:16;4.28;;;2.55;;
15116;SDS011;7659;51.038;13.786;2023-07-30T03:30:42;5.38;;;2.92;;
15116;SDS011;7659;51.038;13.786;2023-07-30T03:33:07;5.40;;;2.80;;
15116;SDS011;7659;51.038;13.786;2023-07-30T03:35:33;4.35;;;2.60;;
15116;SDS011;7659;51.038;13.786;2023-07-30T03:37:58;7.32;;;2.85;;
15116;SDS011;7659;51.038;13.786;2023-07-30T03:40:23;4.05;;;2.70;;
15116;SDS011;7659;51.038;13.786;2023-07-30T03:42:51;8.82;;;3.10;;
15116;SDS011;7659;51.038;13.786;2023-07-30T03:45:17;5.68;;;2.88;;
15116;SDS011;7659;51.038;13.786;2023-07-30T03:47:42;3.90;;;2.72;;
15116;SDS011;7659;51.038;13.786;2023-07-30T03:50:08;4.85;;;2.63;;
15116;SDS011;7659;51.038;13.786;2023-07-30T03:52:33;4.03;;;2.80;;
15116;SDS011;7659;51.038;13.786;2023-07-30T03:54:59;3.30;;;2.78;;
15116;SDS011;7659;51.038;13.786;2023-07-30T03:57:25;3.58;;;2.83;;
15116;SDS011;7659;51.038;13.786;2023-07-30T03:59:50;5.25;;;3.10;;
15116;SDS011;7659;51.038;13.786;2023-07-30T04:02:16;5.75;;;3.75;;
15116;SDS011;7659;51.038;13.786;2023-07-30T04:04:42;5.20;;;3.35;;
15116;SDS011;7659;51.038;13.786;2023-07-30T04:07:10;6.35;;;3.58;;
15116;SDS011;7659;51.038;13.786;2023-07-30T04:09:35;8.93;;;3.05;;
15116;SDS011;7659;51.038;13.786;2023-07-30T04:12:01;5.53;;;3.05;;
15116;SDS011;7659;51.038;13.786;2023-07-30T04:14:26;4.07;;;2.85;;
15116;SDS011;7659;51.038;13.786;2023-07-30T04:16:52;4.95;;;3.00;;
15116;SDS011;7659;51.038;13.786;2023-07-30T04:19:18;7.60;;;3.20;;
15116;SDS011;7659;51.038;13.786;2023-07-30T04:21:43;4.85;;;3.05;;
15116;SDS011;7659;51.038;13.786;2023-07-30T04:24:09;8.10;;;2.88;;
15116;SDS011;7659;51.038;13.786;2023-07-30T04:26:34;3.90;;;2.90;;
15116;SDS011;7659;51.038;13.786;2023-07-30T04:29:00;4.03;;;2.90;;
15116;SDS011;7659;51.038;13.786;2023-07-30T04:31:25;7.55;;;3.50;;
15116;SDS011;7659;51.038;13.786;2023-07-30T04:33:51;6.05;;;3.30;;
15116;SDS011;7659;51.038;13.786;2023-07-30T04:36:17;4.65;;;3.30;;
15116;SDS011;7659;51.038;13.786;2023-07-30T04:38:45;5.90;;;3.78;;
15116;SDS011;7659;51.038;13.786;2023-07-30T04:41:10;9.27;;;4.00;;
15116;SDS011;7659;51.038;13.786;2023-07-30T04:43:41;7.88;;;3.88;;
15116;SDS011;7659;51.038;13.786;2023-07-30T04:46:07;7.53;;;3.88;;
15116;SDS011;7659;51.038;13.786;2023-07-30T04:48:33;13.63;;;4.03;;
15116;SDS011;7659;51.038;13.786;2023-07-30T04:50:58;9.52;;;3.90;;
15116;SDS011;7659;51.038;13.786;2023-07-30T04:53:24;7.15;;;4.07;;
15116;SDS011;7659;51.038;13.786;2023-07-30T04:55:54;6.75;;;3.83;;
15116;SDS011;7659;51.038;13.786;2023-07-30T04:58:19;5.50;;;3.55;;
15116;SDS011;7659;51.038;13.786;2023-07-30T05:00:45;6.95;;;3.50;;
15116;SDS011;7659;51.038;13.786;2023-07-30T05:03:10;4.00;;;3.42;;
15116;SDS011;7659;51.038;13.786;2023-07-30T05:05:36;4.35;;;3.40;;
15116;SDS011;7659;51.038;13.786;2023-07-30T05:08:01;5.15;;;3.33;;
15116;SDS011;7659;51.038;13.786;2023-07-30T05:10:27;3.75;;;3.45;;
15116;SDS011;7659;51.038;13.786;2023-07-30T05:12:52;6.05;;;3.30;;
15116;SDS011;7659;51.038;13.786;2023-07-30T05:15:18;7.72;;;3.80;;
15116;SDS011;7659;51.038;13.786;2023-07-30T05:17:43;5.00;;;3.53;;
15116;SDS011;7659;51.038;13.786;2023-07-30T05:20:09;4.72;;;3.95;;
15116;SDS011;7659;51.038;13.786;2023-07-30T05:22:34;5.60;;;3.47;;
15116;SDS011;7659;51.038;13.786;2023-07-30T05:25:00;5.93;;;3.45;;
15116;SDS011;7659;51.038;13.786;2023-07-30T05:27:26;10.05;;;3.30;;
15116;SDS011;7659;51.038;13.786;2023-07-30T05:29:54;4.65;;;2.92;;
15116;SDS011;7659;51.038;13.786;2023-07-30T05:32:19;4.90;;;2.85;;
15116;SDS011;7659;51.038;13.786;2023-07-30T05:34:45;7.90;;;2.97;;
15116;SDS011;7659;51.038;13.786;2023-07-30T05:37:10;5.90;;;3.05;;
15116;SDS011;7659;51.038;13.786;2023-07-30T05:39:36;6.78;;;2.83;;
15116;SDS011;7659;51.038;13.786;2023-07-30T05:42:01;4.00;;;3.20;;
15116;SDS011;7659;51.038;13.786;2023-07-30T05:44:27;7.55;;;3.20;;
15116;SDS011;7659;51.038;13.786;2023-07-30T05:46:52;4.75;;;3.10;;
15116;SDS011;7659;51.038;13.786;2023-07-30T05:49:18;7.70;;;3.00;;
15116;SDS011;7659;51.038;13.786;2023-07-30T05:51:43;6.18;;;2.80;;
15116;SDS011;7659;51.038;13.786;2023-07-30T05:54:09;4.82;;;2.78;;
15116;SDS011;7659;51.038;13.786;2023-07-30T05:56:34;4.93;;;3.03;;
15116;SDS011;7659;51.038;13.786;2023-07-30T05:59:00;5.47;;;2.53;;
15116;SDS011;7659;51.038;13.786;2023-07-30T06:01:25;5.13;;;2.83;;
15116;SDS011;7659;51.038;13.786;2023-07-30T06:03:51;4.40;;;2.80;;
15116;SDS011;7659;51.038;13.786;2023-07-30T06:06:16;4.57;;;2.78;;
15116;SDS011;7659;51.038;13.786;2023-07-30T06:08:41;4.72;;;2.90;;
15116;SDS011;7659;51.038;13.786;2023-07-30T06:11:07;5.80;;;2.42;;
15116;SDS011;7659;51.038;13.786;2023-07-30T06:13:32;4.47;;;2.67;;
15116;SDS011;7659;51.038;13.786;2023-07-30T06:15:58;4.53;;;2.60;;
15116;SDS011;7659;51.038;13.786;2023-07-30T06:18:23;3.92;;;2.47;;
15116;SDS011;7659;51.038;13.786;2023-07-30T06:20:49;3.38;;;2.60;;
15116;SDS011;7659;51.038;13.786;2023-07-30T06:23:14;7.43;;;2.60;;
15116;SDS011;7659;51.038;13.786;2023-07-30T06:25:40;4.55;;;2.42;;
15116;SDS011;7659;51.038;13.786;2023-07-30T06:28:05;3.80;;;2.35;;
15116;SDS011;7659;51.038;13.786;2023-07-30T06:30:31;3.40;;;2.40;;
15116;SDS011;7659;51.038;13.786;2023-07-30T06:32:57;4.70;;;2.25;;
15116;SDS011;7659;51.038;13.786;2023-07-30T06:35:23;5.25;;;2.13;;
15116;SDS011;7659;51.038;13.786;2023-07-30T06:37:49;2.90;;;2.28;;
15116;SDS011;7659;51.038;13.786;2023-07-30T06:40:14;3.35;;;2.28;;
15116;SDS011;7659;51.038;13.786;2023-07-30T06:42:40;4.53;;;2.47;;
15116;SDS011;7659;51.038;13.786;2023-07-30T06:45:05;4.65;;;2.47;;
15116;SDS011;7659;51.038;13.786;2023-07-30T06:47:31;5.85;;;2.40;;
15116;SDS011;7659;51.038;13.786;2023-07-30T06:49:56;4.50;;;2.35;;
15116;SDS011;7659;51.038;13.786;2023-07-30T06:52:22;6.25;;;2.30;;
15116;SDS011;7659;51.038;13.786;2023-07-30T06:54:47;5.88;;;2.30;;
15116;SDS011;7659;51.038;13.786;2023-07-30T06:57:13;3.65;;;2.90;;
15116;SDS011;7659;51.038;13.786;2023-07-30T06:59:38;4.13;;;2.50;;
15116;SDS011;7659;51.038;13.786;2023-07-30T07:02:04;3.75;;;2.60;;
15116;SDS011;7659;51.038;13.786;2023-07-30T07:04:31;3.20;;;2.40;;
15116;SDS011;7659;51.038;13.786;2023-07-30T07:06:57;7.55;;;2.45;;
15116;SDS011;7659;51.038;13.786;2023-07-30T07:09:22;3.58;;;1.90;;
15116;SDS011;7659;51.038;13.786;2023-07-30T07:11:48;4.60;;;2.00;;
15116;SDS011;7659;51.038;13.786;2023-07-30T07:14:13;3.13;;;2.15;;
15116;SDS011;7659;51.038;13.786;2023-07-30T07:16:38;12.20;;;2.50;;
15116;SDS011;7659;51.038;13.786;2023-07-30T07:19:04;6.85;;;3.30;;
15116;SDS011;7659;51.038;13.786;2023-07-30T07:21:30;7.22;;;2.90;;
15116;SDS011;7659;51.038;13.786;2023-07-30T07:23:55;5.47;;;2.50;;
15116;SDS011;7659;51.038;13.786;2023-07-30T07:26:21;3.00;;;2.47;;
15116;SDS011;7659;51.038;13.786;2023-07-30T07:28:46;6.70;;;2.40;;
15116;SDS011;7659;51.038;13.786;2023-07-30T07:31:12;5.10;;;2.22;;
15116;SDS011;7659;51.038;13.786;2023-07-30T07:33:37;6.10;;;2.40;;
15116;SDS011;7659;51.038;13.786;2023-07-30T07:36:06;4.03;;;2.45;;
15116;SDS011;7659;51.038;13.786;2023-07-30T07:38:32;5.15;;;2.40;;
15116;SDS011;7659;51.038;13.786;2023-07-30T07:40:58;5.35;;;2.15;;
15116;SDS011;7659;51.038;13.786;2023-07-30T07:43:24;2.90;;;1.60;;
15116;SDS011;7659;51.038;13.786;2023-07-30T07:45:49;4.63;;;1.92;;
15116;SDS011;7659;51.038;13.786;2023-07-30T07:48:15;3.97;;;2.25;;
15116;SDS011;7659;51.038;13.786;2023-07-30T07:50:40;6.68;;;2.20;;
15116;SDS011;7659;51.038;13.786;2023-07-30T07:53:05;4.80;;;2.28;;
15116;SDS011;7659;51.038;13.786;2023-07-30T07:55:31;2.13;;;1.88;;
15116;SDS011;7659;51.038;13.786;2023-07-30T07:57:57;3.55;;;2.60;;
15116;SDS011;7659;51.038;13.786;2023-07-30T08:00:22;2.70;;;1.80;;
15116;SDS011;7659;51.038;13.786;2023-07-30T08:02:47;3.35;;;1.80;;
15116;SDS011;7659;51.038;13.786;2023-07-30T08:05:13;4.75;;;2.30;;
15116;SDS011;7659;51.038;13.786;2023-07-30T08:07:39;9.18;;;2.40;;
15116;SDS011;7659;51.038;13.786;2023-07-30T08:10:04;5.65;;;1.92;;
15116;SDS011;7659;51.038;13.786;2023-07-30T08:12:31;3.17;;;1.98;;
15116;SDS011;7659;51.038;13.786;2023-07-30T08:14:57;5.25;;;2.25;;
15116;SDS011;7659;51.038;13.786;2023-07-30T08:17:24;3.83;;;2.00;;
15116;SDS011;7659;51.038;13.786;2023-07-30T08:19:49;2.83;;;1.90;;
15116;SDS011;7659;51.038;13.786;2023-07-30T08:22:15;4.28;;;1.73;;
15116;SDS011;7659;51.038;13.786;2023-07-30T08:24:40;3.55;;;1.90;;
15116;SDS011;7659;51.038;13.786;2023-07-30T08:27:06;4.15;;;1.98;;
15116;SDS011;7659;51.038;13.786;2023-07-30T08:29:31;2.45;;;2.00;;
15116;SDS011;7659;51.038;13.786;2023-07-30T08:31:57;6.38;;;2.10;;
15116;SDS011;7659;51.038;13.786;2023-07-30T08:34:22;2.95;;;1.92;;
15116;SDS011;7659;51.038;13.786;2023-07-30T08:36:48;6.40;;;2.00;;
15116;SDS011;7659;51.038;13.786;2023-07-30T08:39:14;1.85;;;1.63;;
15116;SDS011;7659;51.038;13.786;2023-07-30T08:41:39;1.45;;;1.33;;
15116;SDS011;7659;51.038;13.786;2023-07-30T08:44:05;2.47;;;1.77;;
15116;SDS011;7659;51.038;13.786;2023-07-30T08:46:31;2.45;;;1.58;;
15116;SDS011;7659;51.038;13.786;2023-07-30T08:48:56;2.65;;;1.90;;
15116;SDS011;7659;51.038;13.786;2023-07-30T08:51:22;3.22;;;1.60;;
15116;SDS011;7659;51.038;13.786;2023-07-30T08:53:48;4.72;;;1.85;;
15116;SDS011;7659;51.038;13.786;2023-07-30T08:56:14;5.22;;;1.40;;
15116;SDS011;7659;51.038;13.786;2023-07-30T08:58:39;6.72;;;1.42;;
15116;SDS011;7659;51.038;13.786;2023-07-30T09:01:08;4.68;;;1.42;;
15116;SDS011;7659;51.038;13.786;2023-07-30T09:03:34;3.38;;;1.67;;
15116;SDS011;7659;51.038;13.786;2023-07-30T09:06:02;3.65;;;1.45;;
15116;SDS011;7659;51.038;13.786;2023-07-30T09:08:27;1.30;;;1.20;;
15116;SDS011;7659;51.038;13.786;2023-07-30T09:10:53;4.80;;;1.40;;
15116;SDS011;7659;51.038;13.786;2023-07-30T09:13:22;2.42;;;1.45;;
15116;SDS011;7659;51.038;13.786;2023-07-30T09:15:50;3.95;;;1.20;;
15116;SDS011;7659;51.038;13.786;2023-07-30T09:18:19;3.20;;;1.50;;
15116;SDS011;7659;51.038;13.786;2023-07-30T09:20:44;4.65;;;1.30;;
15116;SDS011;7659;51.038;13.786;2023-07-30T09:23:10;2.38;;;1.52;;
15116;SDS011;7659;51.038;13.786;2023-07-30T09:25:36;1.98;;;1.30;;
15116;SDS011;7659;51.038;13.786;2023-07-30T09:28:02;1.17;;;1.08;;
15116;SDS011;7659;51.038;13.786;2023-07-30T09:30:27;1.40;;;1.27;;
15116;SDS011;7659;51.038;13.786;2023-07-30T09:32:56;1.77;;;1.30;;
15116;SDS011;7659;51.038;13.786;2023-07-30T09:35:23;1.83;;;1.10;;
15116;SDS011;7659;51.038;13.786;2023-07-30T09:37:50;2.38;;;1.23;;
15116;SDS011;7659;51.038;13.786;2023-07-30T09:40:16;3.00;;;1.20;;
15116;SDS011;7659;51.038;13.786;2023-07-30T09:42:44;1.70;;;1.50;;
15116;SDS011;7659;51.038;13.786;2023-07-30T09:45:16;2.35;;;1.40;;
15116;SDS011;7659;51.038;13.786;2023-07-30T09:47:46;1.63;;;1.23;;
15116;SDS011;7659;51.038;13.786;2023-07-30T09:50:11;1.38;;;1.20;;
15116;SDS011;7659;51.038;13.786;2023-07-30T09:52:36;3.17;;;1.27;;
15116;SDS011;7659;51.038;13.786;2023-07-30T09:55:02;2.38;;;1.42;;
15116;SDS011;7659;51.038;13.786;2023-07-30T09:57:28;3.83;;;2.40;;
15116;SDS011;7659;51.038;13.786;2023-07-30T09:59:54;3.83;;;1.17;;
15116;SDS011;7659;51.038;13.786;2023-07-30T10:02:19;4.53;;;1.23;;
15116;SDS011;7659;51.038;13.786;2023-07-30T10:04:46;3.00;;;1.40;;
15116;SDS011;7659;51.038;13.786;2023-07-30T10:07:14;2.22;;;1.25;;
15116;SDS011;7659;51.038;13.786;2023-07-30T10:09:42;1.60;;;1.45;;
15116;SDS011;7659;51.038;13.786;2023-07-30T10:12:12;3.00;;;1.45;;
15116;SDS011;7659;51.038;13.786;2023-07-30T10:14:39;2.05;;;1.63;;
15116;SDS011;7659;51.038;13.786;2023-07-30T10:17:04;4.18;;;1.73;;
15116;SDS011;7659;51.038;13.786;2023-07-30T10:19:30;1.50;;;1.40;;
15116;SDS011;7659;51.038;13.786;2023-07-30T10:21:57;1.30;;;1.20;;
15116;SDS011;7659;51.038;13.786;2023-07-30T10:24:25;3.63;;;1.55;;
15116;SDS011;7659;51.038;13.786;2023-07-30T10:26:50;3.35;;;1.70;;
15116;SDS011;7659;51.038;13.786;2023-07-30T10:29:18;2.85;;;1.58;;
15116;SDS011;7659;51.038;13.786;2023-07-30T10:32:02;1.95;;;1.30;;
15116;SDS011;7659;51.038;13.786;2023-07-30T10:34:44;3.30;;;1.57;;
15116;SDS011;7659;51.038;13.786;2023-07-30T10:37:09;1.40;;;1.30;;
15116;SDS011;7659;51.038;13.786;2023-07-30T10:39:35;1.58;;;1.35;;
15116;SDS011;7659;51.038;13.786;2023-07-30T10:42:00;3.05;;;1.52;;
15116;SDS011;7659;51.038;13.786;2023-07-30T10:44:33;4.68;;;1.77;;
15116;SDS011;7659;51.038;13.786;2023-07-30T10:46:59;1.70;;;1.60;;
15116;SDS011;7659;51.038;13.786;2023-07-30T10:49:25;3.63;;;1.50;;
15116;SDS011;7659;51.038;13.786;2023-07-30T10:51:51;2.22;;;1.50;;
15116;SDS011;7659;51.038;13.786;2023-07-30T10:54:18;1.63;;;1.52;;
15116;SDS011;7659;51.038;13.786;2023-07-30T10:56:43;3.22;;;1.35;;
15116;SDS011;7659;51.038;13.786;2023-07-30T10:59:10;3.33;;;1.60;;
15116;SDS011;7659;51.038;13.786;2023-07-30T11:01:40;4.63;;;1.45;;
15116;SDS011;7659;51.038;13.786;2023-07-30T11:04:07;1.63;;;1.20;;
15116;SDS011;7659;51.038;13.786;2023-07-30T11:06:33;3.22;;;1.25;;
15116;SDS011;7659;51.038;13.786;2023-07-30T11:08:58;2.00;;;1.15;;
15116;SDS011;7659;51.038;13.786;2023-07-30T11:11:23;1.15;;;1.05;;
15116;SDS011;7659;51.038;13.786;2023-07-30T11:13:50;5.95;;;4.80;;
15116;SDS011;7659;51.038;13.786;2023-07-30T11:16:16;3.97;;;1.90;;
15116;SDS011;7659;51.038;13.786;2023-07-30T11:18:42;2.97;;;1.20;;
15116;SDS011;7659;51.038;13.786;2023-07-30T11:21:08;1.40;;;1.30;;
15116;SDS011;7659;51.038;13.786;2023-07-30T11:23:34;1.27;;;1.17;;
15116;SDS011;7659;51.038;13.786;2023-07-30T11:26:01;3.63;;;2.55;;
15116;SDS011;7659;51.038;13.786;2023-07-30T11:28:28;4.18;;;1.30;;
15116;SDS011;7659;51.038;13.786;2023-07-30T11:30:55;3.22;;;1.00;;
15116;SDS011;7659;51.038;13.786;2023-07-30T11:33:20;4.15;;;1.00;;
15116;SDS011;7659;51.038;13.786;2023-07-30T11:35:46;6.25;;;5.53;;
15116;SDS011;7659;51.038;13.786;2023-07-30T11:38:12;3.15;;;1.42;;
15116;SDS011;7659;51.038;13.786;2023-07-30T11:40:39;1.00;;;0.90;;
15116;SDS011;7659;51.038;13.786;2023-07-30T11:43:04;0.77;;;0.70;;
15116;SDS011;7659;51.038;13.786;2023-07-30T11:45:30;2.00;;;0.85;;
15116;SDS011;7659;51.038;13.786;2023-07-30T11:48:05;1.02;;;0.80;;
15116;SDS011;7659;51.038;13.786;2023-07-30T11:50:49;0.98;;;0.85;;
15116;SDS011;7659;51.038;13.786;2023-07-30T11:53:15;1.75;;;0.75;;
15116;SDS011;7659;51.038;13.786;2023-07-30T11:55:41;2.03;;;0.73;;
15116;SDS011;7659;51.038;13.786;2023-07-30T11:58:07;3.70;;;0.77;;
15116;SDS011;7659;51.038;13.786;2023-07-30T12:00:32;1.42;;;0.50;;
15116;SDS011;7659;51.038;13.786;2023-07-30T12:03:02;2.35;;;0.50;;
15116;SDS011;7659;51.038;13.786;2023-07-30T12:05:31;2.30;;;1.33;;
15116;SDS011;7659;51.038;13.786;2023-07-30T12:07:57;0.90;;;0.60;;
15116;SDS011;7659;51.038;13.786;2023-07-30T12:10:23;3.33;;;0.50;;
15116;SDS011;7659;51.038;13.786;2023-07-30T12:12:50;1.73;;;0.60;;
15116;SDS011;7659;51.038;13.786;2023-07-30T12:15:17;0.85;;;0.70;;
15116;SDS011;7659;51.038;13.786;2023-07-30T12:17:43;0.90;;;0.60;;
15116;SDS011;7659;51.038;13.786;2023-07-30T12:20:08;5.05;;;0.73;;
15116;SDS011;7659;51.038;13.786;2023-07-30T12:22:34;1.80;;;0.80;;
15116;SDS011;7659;51.038;13.786;2023-07-30T12:25:04;2.40;;;0.60;;
15116;SDS011;7659;51.038;13.786;2023-07-30T12:27:29;2.47;;;0.50;;
15116;SDS011;7659;51.038;13.786;2023-07-30T12:29:55;3.63;;;0.52;;
15116;SDS011;7659;51.038;13.786;2023-07-30T12:32:21;0.57;;;0.50;;
15116;SDS011;7659;51.038;13.786;2023-07-30T12:34:46;0.70;;;0.70;;
15116;SDS011;7659;51.038;13.786;2023-07-30T12:37:12;2.97;;;0.60;;
15116;SDS011;7659;51.038;13.786;2023-07-30T12:39:37;0.60;;;0.60;;
15116;SDS011;7659;51.038;13.786;2023-07-30T12:42:02;1.30;;;0.77;;
15116;SDS011;7659;51.038;13.786;2023-07-30T12:44:28;1.42;;;0.68;;
15116;SDS011;7659;51.038;13.786;2023-07-30T12:46:53;0.75;;;0.60;;
15116;SDS011;7659;51.038;13.786;2023-07-30T12:49:19;0.70;;;0.70;;
15116;SDS011;7659;51.038;13.786;2023-07-30T12:51:44;3.97;;;1.52;;
15116;SDS011;7659;51.038;13.786;2023-07-30T12:54:10;1.88;;;0.50;;
15116;SDS011;7659;51.038;13.786;2023-07-30T12:56:35;0.88;;;0.60;;
15116;SDS011;7659;51.038;13.786;2023-07-30T12:59:01;2.10;;;0.60;;
15116;SDS011;7659;51.038;13.786;2023-07-30T13:01:26;1.45;;;0.73;;
15116;SDS011;7659;51.038;13.786;2023-07-30T13:03:52;0.93;;;0.80;;
15116;SDS011;7659;51.038;13.786;2023-07-30T13:06:22;0.95;;;0.65;;
15116;SDS011;7659;51.038;13.786;2023-07-30T13:08:47;1.83;;;0.68;;
15116;SDS011;7659;51.038;13.786;2023-07-30T13:11:13;1.08;;;0.75;;
15116;SDS011;7659;51.038;13.786;2023-07-30T13:13:39;0.95;;;0.52;;
15116;SDS011;7659;51.038;13.786;2023-07-30T13:16:04;0.70;;;0.60;;
15116;SDS011;7659;51.038;13.786;2023-07-30T13:18:30;0.50;;;0.50;;
15116;SDS011;7659;51.038;13.786;2023-07-30T13:20:55;1.10;;;0.60;;
15116;SDS011;7659;51.038;13.786;2023-07-30T13:23:21;1.95;;;0.60;;
15116;SDS011;7659;51.038;13.786;2023-07-30T13:25:46;1.67;;;0.70;;
15116;SDS011;7659;51.038;13.786;2023-07-30T13:28:12;1.15;;;0.70;;
15116;SDS011;7659;51.038;13.786;2023-07-30T13:30:37;3.80;;;0.77;;
15116;SDS011;7659;51.038;13.786;2023-07-30T13:33:03;3.00;;;0.63;;
15116;SDS011;7659;51.038;13.786;2023-07-30T13:35:28;0.70;;;0.60;;
15116;SDS011;7659;51.038;13.786;2023-07-30T13:37:54;2.05;;;0.63;;
15116;SDS011;7659;51.038;13.786;2023-07-30T13:40:19;3.10;;;0.60;;
15116;SDS011;7659;51.038;13.786;2023-07-30T13:42:45;2.25;;;0.60;;
15116;SDS011;7659;51.038;13.786;2023-07-30T13:45:10;1.33;;;0.60;;
15116;SDS011;7659;51.038;13.786;2023-07-30T13:47:35;1.55;;;0.52;;
15116;SDS011;7659;51.038;13.786;2023-07-30T13:50:01;3.83;;;0.38;;
15116;SDS011;7659;51.038;13.786;2023-07-30T13:52:27;0.50;;;0.50;;
15116;SDS011;7659;51.038;13.786;2023-07-30T13:54:52;2.63;;;0.50;;
15116;SDS011;7659;51.038;13.786;2023-07-30T13:57:21;0.45;;;0.40;;
15116;SDS011;7659;51.038;13.786;2023-07-30T13:59:47;2.50;;;0.52;;
15116;SDS011;7659;51.038;13.786;2023-07-30T14:02:12;3.83;;;0.52;;
15116;SDS011;7659;51.038;13.786;2023-07-30T14:04:38;1.65;;;0.70;;
15116;SDS011;7659;51.038;13.786;2023-07-30T14:07:04;1.80;;;0.68;;
15116;SDS011;7659;51.038;13.786;2023-07-30T14:09:29;1.23;;;0.60;;
15116;SDS011;7659;51.038;13.786;2023-07-30T14:11:58;0.65;;;0.60;;
15116;SDS011;7659;51.038;13.786;2023-07-30T14:14:24;0.60;;;0.50;;
15116;SDS011;7659;51.038;13.786;2023-07-30T14:16:51;0.60;;;0.60;;
15116;SDS011;7659;51.038;13.786;2023-07-30T14:19:17;1.00;;;0.73;;
15116;SDS011;7659;51.038;13.786;2023-07-30T14:21:42;3.72;;;0.80;;
15116;SDS011;7659;51.038;13.786;2023-07-30T14:24:10;0.50;;;0.43;;
15116;SDS011;7659;51.038;13.786;2023-07-30T14:26:35;0.80;;;0.55;;
15116;SDS011;7659;51.038;13.786;2023-07-30T14:29:01;0.70;;;0.60;;
15116;SDS011;7659;51.038;13.786;2023-07-30T14:31:26;0.70;;;0.70;;
15116;SDS011;7659;51.038;13.786;2023-07-30T14:33:52;1.23;;;0.60;;
15116;SDS011;7659;51.038;13.786;2023-07-30T14:36:18;3.72;;;0.70;;
15116;SDS011;7659;51.038;13.786;2023-07-30T14:38:43;0.70;;;0.63;;
15116;SDS011;7659;51.038;13.786;2023-07-30T14:41:09;3.72;;;0.68;;